Classifiche di sempre
Migliori tempi personali validi di atleta tra tutti gli eventi e le stagioni. Ogni atleta compare una sola volta per divisione.
Cerca per nome e apri la pagina in cui è classificato questo record di divisione.
104,505 atleti in classifica
| Pos. | Pos. AG | Atleta | Nazionalità | Categoria età | TempoMiglior tempo | Distacco |
|---|---|---|---|---|---|---|
| 27176 | #7029 | Mathilde TreilleFRA · W 30-34 · AG #7029 | FRA | W 30-34 | 1:25:23 | +45:47 |
| 27177 | #7217 | Flor Juliet Salinas Del PinoMEX · W 25-29 · AG #7217 | MEX | W 25-29 | 1:25:23 | +45:47 |
| 27178 | #4954 | Katie NewellIRL · W 35-39 · AG #4954 | IRL | W 35-39 | 1:25:23 | +45:47 |
| 27179 | #4955 | Joanne LittlejohnGBR · W 35-39 · AG #4955 | GBR | W 35-39 | 1:25:23 | +45:47 |
| 27180 | #7218 | Cordula Marleen FrizGER · W 25-29 · AG #7218 | GER | W 25-29 | 1:25:23 | +45:47 |
| 27181 | #4956 | Leann BelsomGBR · W 35-39 · AG #4956 | GBR | W 35-39 | 1:25:23 | +45:47 |
| 27182 | #3705 | Amanda HileyGBR · W 16-24 · AG #3705 | GBR | W 16-24 | 1:25:23 | +45:47 |
| 27183 | #3706 | Amber RuddleGBR · W 16-24 · AG #3706 | GBR | W 16-24 | 1:25:23 | +45:47 |
| 27184 | #4957 | Nynne AmmundsenDEN · W 35-39 · AG #4957 | DEN | W 35-39 | 1:25:23 | +45:47 |
| 27185 | #596 | Silve Vargas PulidoESP · W 50-54 · AG #596 | ESP | W 50-54 | 1:25:23 | +45:47 |
| 27186 | #4958 | Kristin WhittleUSA · W 35-39 · AG #4958 | USA | W 35-39 | 1:25:23 | +45:47 |
| 27187 | #7031 | Rhianne McilroyGBR · W 30-34 · AG #7031 | GBR | W 30-34 | 1:25:23 | +45:47 |
| 27188 | #3358 | Susanne-Frederike SchuiGER · W 40-44 · AG #3358 | GER | W 40-44 | 1:25:23 | +45:47 |
| 27189 | #3359 | Marissa TempleUSA · W 40-44 · AG #3359 | USA | W 40-44 | 1:25:23 | +45:47 |
| 27190 | #3704 | Lily AndersonGBR · W 16-24 · AG #3704 | GBR | W 16-24 | 1:25:23 | +45:47 |
| 27191 | #3707 | Maisie AllenGBR · W 16-24 · AG #3707 | GBR | W 16-24 | 1:25:23 | +45:47 |
| 27192 | #7216 | Alyson ErwinGBR · W 25-29 · AG #7216 | GBR | W 25-29 | 1:25:23 | +45:47 |
| 27193 | #1628 | Rebecca KRÜGERNED · W 45-49 · AG #1628 | NED | W 45-49 | 1:25:23 | +45:47 |
| 27194 | #3357 | Vikki MorrisseyGBR · W 40-44 · AG #3357 | GBR | W 40-44 | 1:25:23 | +45:47 |
| 27195 | #7219 | Melissa ComellasFRA · W 25-29 · AG #7219 | FRA | W 25-29 | 1:25:23 | +45:47 |
| 27196 | #597 | Janell BattUSA · W 50-54 · AG #597 | USA | W 50-54 | 1:25:23 | +45:47 |
| 27197 | #7032 | Maddie DunleavyUSA · W 30-34 · AG #7032 | USA | W 30-34 | 1:25:23 | +45:47 |
| 27198 | #4953 | Ekaterina GlasNED · W 35-39 · AG #4953 | NED | W 35-39 | 1:25:23 | +45:47 |
| 27199 | #7221 | Angelique WilmsGER · W 25-29 · AG #7221 | GER | W 25-29 | 1:25:23 | +45:47 |
| 27200 | #7220 | Sarah GuyonUSA · W 25-29 · AG #7220 | USA | W 25-29 | 1:25:23 | +45:47 |
Pagina 1,088 di 4,181